Time;durP1;ratioP1;P1;durP2;ratioP2;P2;SDS_P1;SDS_P2;PMS_P1;PMS_P2;Temp;Humidity;BMP_temperature;BMP_pressure;BME280_temperature;BME280_humidity;BME280_pressure;Samples;Min_cycle;Max_cycle;Signal;HPM_P1;HPM_P2
2023/12/06 00:02:22;;;;;;;25.20;16.20;;;;;;;-0.21;80.43;101297.42;108269;1254;60271;-66
2023/12/06 00:04:49;;;;;;;24.90;16.00;;;;;;;-0.23;80.45;101297.46;108148;1253;72208;-66
2023/12/06 00:07:17;;;;;;;25.50;16.20;;;;;;;-0.25;80.67;101299.00;108197;1256;71559;-67
2023/12/06 00:09:45;;;;;;;22.70;15.50;;;;;;;-0.25;80.85;101300.61;108255;1254;72700;-67
2023/12/06 00:12:14;;;;;;;24.10;15.80;;;;;;;-0.26;80.93;101303.55;108090;1255;60479;-67
2023/12/06 00:14:41;;;;;;;23.60;14.10;;;;;;;-0.24;81.28;101301.40;108113;1253;60025;-67
2023/12/06 00:17:09;;;;;;;26.20;16.30;;;;;;;-0.23;81.17;101305.73;108228;1254;72819;-66
2023/12/06 00:19:37;;;;;;;24.30;15.10;;;;;;;-0.25;81.00;101300.61;108282;1256;71369;-68
2023/12/06 00:22:04;;;;;;;26.10;16.40;;;;;;;-0.25;81.28;101300.33;108268;1254;71435;-68
2023/12/06 00:24:32;;;;;;;23.30;15.00;;;;;;;-0.25;81.33;101298.55;108179;1254;60270;-66
2023/12/06 00:27:00;;;;;;;26.50;15.50;;;;;;;-0.24;81.44;101300.38;108262;1254;60392;-66
2023/12/06 00:29:28;;;;;;;27.20;16.20;;;;;;;-0.26;81.27;101301.58;108257;1254;72578;-66
2023/12/06 00:31:55;;;;;;;26.10;16.60;;;;;;;-0.25;81.44;101300.68;108196;1258;71919;-66
2023/12/06 00:34:23;;;;;;;23.70;14.70;;;;;;;-0.25;81.34;101296.85;108075;1254;71462;-69
2023/12/06 00:36:51;;;;;;;24.80;16.20;;;;;;;-0.25;81.29;101298.15;108218;1254;60427;-66
2023/12/06 00:39:19;;;;;;;21.40;14.10;;;;;;;-0.26;81.07;101300.22;108224;1254;60286;-66
2023/12/06 00:41:46;;;;;;;26.20;16.30;;;;;;;-0.27;81.32;101295.78;108309;1253;72634;-66
2023/12/06 00:44:14;;;;;;;23.10;15.20;;;;;;;-0.28;81.42;101299.93;108145;1254;72931;-68
2023/12/06 00:46:42;;;;;;;25.50;16.30;;;;;;;-0.27;81.24;101302.05;108183;1253;71676;-68
2023/12/06 00:49:10;;;;;;;25.20;15.90;;;;;;;-0.28;81.29;101300.30;108264;1254;60805;-68
2023/12/06 00:51:39;;;;;;;24.50;16.30;;;;;;;-0.30;81.13;101299.21;108182;1254;60249;-67
2023/12/06 00:54:07;;;;;;;28.50;17.00;;;;;;;-0.31;81.34;101299.05;108266;1254;72743;-68
2023/12/06 00:56:35;;;;;;;26.60;17.20;;;;;;;-0.31;81.39;101293.93;108251;1254;72066;-67
2023/12/06 00:59:04;;;;;;;27.10;17.30;;;;;;;-0.29;81.69;101293.05;108135;1254;71416;-67
2023/12/06 01:01:32;;;;;;;26.80;16.30;;;;;;;-0.29;81.76;101292.88;108183;1254;60207;-68
2023/12/06 01:04:00;;;;;;;26.60;16.20;;;;;;;-0.31;81.52;101288.67;108147;1254;60248;-68
2023/12/06 01:06:27;;;;;;;29.50;16.90;;;;;;;-0.31;81.48;101290.83;108286;1254;72822;-68
2023/12/06 01:08:55;;;;;;;25.10;16.30;;;;;;;-0.33;81.63;101289.31;108267;1254;71829;-67
2023/12/06 01:11:23;;;;;;;26.80;16.60;;;;;;;-0.34;81.74;101292.04;108178;1254;70636;-67
2023/12/06 01:13:51;;;;;;;26.40;16.60;;;;;;;-0.35;81.73;101290.05;108198;1253;60454;-68
2023/12/06 01:16:19;;;;;;;27.90;17.40;;;;;;;-0.36;81.61;101288.04;108215;1254;60514;-68
2023/12/06 01:18:47;;;;;;;22.70;14.30;;;;;;;-0.36;82.09;101287.18;108273;1253;72650;-68
2023/12/06 01:21:15;;;;;;;26.30;16.70;;;;;;;-0.37;81.69;101283.54;108205;1254;71565;-68
2023/12/06 01:23:43;;;;;;;23.50;15.60;;;;;;;-0.37;82.12;101289.67;108233;1254;72664;-68
2023/12/06 01:26:11;;;;;;;24.60;15.30;;;;;;;-0.37;82.07;101288.63;108291;1254;60444;-67
2023/12/06 01:28:41;;;;;;;26.00;15.70;;;;;;;-0.37;81.81;101287.12;108222;1254;60350;-67
2023/12/06 01:31:09;;;;;;;26.00;16.80;;;;;;;-0.39;81.79;101287.48;108298;1255;72882;-67
2023/12/06 01:33:37;;;;;;;27.70;16.80;;;;;;;-0.41;81.72;101284.04;108149;1254;71597;-67
2023/12/06 01:36:05;;;;;;;25.60;15.50;;;;;;;-0.42;81.80;101284.29;108273;1254;72098;-67
2023/12/06 01:38:33;;;;;;;27.30;17.00;;;;;;;-0.42;81.80;101280.60;108231;1254;60264;-66
2023/12/06 01:41:02;;;;;;;27.00;16.30;;;;;;;-0.42;81.81;101278.17;108202;1254;61059;-66
2023/12/06 01:43:30;;;;;;;28.30;16.60;;;;;;;-0.44;82.01;101269.80;108321;1257;73862;-67
2023/12/06 01:45:58;;;;;;;24.50;15.70;;;;;;;-0.44;81.85;101258.48;108236;1254;72771;-66
2023/12/06 01:48:27;;;;;;;29.30;16.80;;;;;;;-0.47;81.96;101254.77;108224;1252;72669;-67
2023/12/06 01:51:00;;;;;;;26.20;16.30;;;;;;;-0.53;81.85;101253.95;108106;1257;60563;-66
2023/12/06 01:53:28;;;;;;;23.00;14.90;;;;;;;-0.56;82.10;101250.09;108070;1254;60289;-66
2023/12/06 01:55:56;;;;;;;26.40;17.00;;;;;;;-0.58;82.10;101257.36;108215;1254;73858;-66
2023/12/06 01:58:23;;;;;;;29.60;17.70;;;;;;;-0.62;82.22;101261.98;108177;1254;72099;-66
2023/12/06 02:00:51;;;;;;;29.10;17.60;;;;;;;-0.65;82.58;101268.43;108138;1254;71959;-67
2023/12/06 02:03:19;;;;;;;28.00;17.40;;;;;;;-0.65;82.67;101268.10;108069;1254;60428;-67
2023/12/06 02:05:47;;;;;;;25.50;16.80;;;;;;;-0.66;83.10;101267.51;108205;1253;60370;-66
2023/12/06 02:08:16;;;;;;;27.60;16.80;;;;;;;-0.68;83.36;101262.96;108579;1254;72646;-67
2023/12/06 02:10:44;;;;;;;31.10;17.70;;;;;;;-0.69;83.63;101265.94;108309;1254;71608;-67
2023/12/06 02:13:12;;;;;;;28.40;18.10;;;;;;;-0.71;83.68;101267.52;108189;1254;72478;-67
2023/12/06 02:15:39;;;;;;;29.50;18.40;;;;;;;-0.73;83.96;101266.66;108060;1254;60395;-67
2023/12/06 02:18:07;;;;;;;30.50;19.30;;;;;;;-0.76;84.32;101259.43;108005;1254;60405;-66
2023/12/06 02:20:35;;;;;;;27.80;18.70;;;;;;;-0.78;84.61;101255.48;107982;1254;73770;-68
2023/12/06 02:23:04;;;;;;;29.80;19.10;;;;;;;-0.80;84.94;101256.36;108166;1253;74995;-68
2023/12/06 02:25:31;;;;;;;25.50;16.20;;;;;;;-0.81;85.40;101256.27;108355;1254;72461;-67
2023/12/06 02:27:59;;;;;;;31.10;18.70;;;;;;;-0.81;85.68;101254.80;108208;1253;60514;-66
2023/12/06 02:30:27;;;;;;;27.70;17.80;;;;;;;-0.82;86.00;101258.73;108300;1253;59898;-66
2023/12/06 02:32:54;;;;;;;30.40;18.90;;;;;;;-0.82;86.21;101260.15;108248;1254;71726;-66
2023/12/06 02:35:30;;;;;;;29.50;18.80;;;;;;;-0.83;86.18;101262.54;108297;1253;71616;-67
2023/12/06 02:37:59;;;;;;;31.70;19.20;;;;;;;-0.85;86.45;101260.59;108157;1254;72630;-65
2023/12/06 02:40:27;;;;;;;30.40;18.50;;;;;;;-0.87;86.62;101263.30;108163;1253;60293;-67
2023/12/06 02:42:55;;;;;;;32.30;19.80;;;;;;;-0.90;86.94;101260.45;108199;1254;60334;-67
2023/12/06 02:45:23;;;;;;;28.40;18.70;;;;;;;-0.93;87.05;101264.25;108316;1253;72638;-65
2023/12/06 02:47:50;;;;;;;32.00;19.00;;;;;;;-0.95;87.37;101262.42;108153;1254;72645;-67
2023/12/06 02:50:18;;;;;;;31.20;19.50;;;;;;;-0.97;87.38;101259.59;108262;1254;71394;-66
2023/12/06 02:52:46;;;;;;;29.00;19.10;;;;;;;-0.98;87.85;101258.81;108156;1254;60303;-65
2023/12/06 02:55:14;;;;;;;30.90;19.40;;;;;;;-0.97;87.85;101261.44;108183;1253;60670;-66
2023/12/06 02:57:41;;;;;;;29.50;18.60;;;;;;;-0.98;88.34;101261.11;108292;1254;72433;-67
2023/12/06 03:00:10;;;;;;;28.80;17.70;;;;;;;-0.96;88.28;101265.65;108223;1254;73110;-67
2023/12/06 03:02:38;;;;;;;28.30;17.00;;;;;;;-0.96;88.57;101265.91;108189;1254;72632;-67
2023/12/06 03:05:06;;;;;;;30.10;17.50;;;;;;;-0.96;88.71;101266.83;108230;1254;60445;-66
2023/12/06 03:07:34;;;;;;;28.70;18.00;;;;;;;-0.95;88.80;101268.64;108189;1254;60111;-66
2023/12/06 03:10:03;;;;;;;27.00;18.10;;;;;;;-0.95;89.07;101267.80;108205;1254;72812;-66
2023/12/06 03:12:32;;;;;;;29.00;18.40;;;;;;;-0.96;89.00;101268.77;108166;1254;74772;-67
2023/12/06 03:15:00;;;;;;;28.90;18.50;;;;;;;-0.96;89.11;101270.51;108209;1254;70363;-66
2023/12/06 03:17:28;;;;;;;29.50;18.40;;;;;;;-0.95;89.38;101270.41;108141;1253;60290;-67
2023/12/06 03:19:56;;;;;;;28.90;18.20;;;;;;;-0.95;89.51;101270.25;108191;1254;60284;-67
2023/12/06 03:22:23;;;;;;;32.00;19.10;;;;;;;-0.97;89.45;101272.88;108168;1254;72783;-67
2023/12/06 03:24:52;;;;;;;30.90;19.00;;;;;;;-0.99;89.77;101266.84;108247;1254;72360;-67
2023/12/06 03:27:21;;;;;;;32.80;19.80;;;;;;;-1.02;89.89;101267.46;108093;1254;71001;-67
2023/12/06 03:29:49;;;;;;;32.30;20.30;;;;;;;-1.03;90.23;101262.50;108278;1253;59629;-66
2023/12/06 03:32:17;;;;;;;28.70;17.30;;;;;;;-1.02;90.45;101255.13;108287;1254;60251;-65
2023/12/06 03:34:44;;;;;;;29.80;19.70;;;;;;;-1.02;90.79;101255.46;108142;1254;72664;-67
2023/12/06 03:37:12;;;;;;;33.50;20.20;;;;;;;-1.04;90.85;101254.26;108190;1254;71607;-66
2023/12/06 03:39:40;;;;;;;33.20;20.40;;;;;;;-1.05;90.86;101258.02;108252;1254;72619;-66
2023/12/06 03:42:08;;;;;;;29.20;19.20;;;;;;;-1.05;91.21;101260.52;108320;1254;61003;-66
2023/12/06 03:44:35;;;;;;;29.80;19.10;;;;;;;-1.05;91.37;101261.04;108236;1253;60005;-66
2023/12/06 03:47:03;;;;;;;30.80;19.70;;;;;;;-1.04;91.53;101262.29;108057;1254;73586;-67
2023/12/06 03:49:31;;;;;;;33.10;19.60;;;;;;;-1.03;91.66;101263.56;108321;1254;71146;-67
2023/12/06 03:51:59;;;;;;;32.60;20.20;;;;;;;-1.05;91.65;101263.30;108198;1256;71366;-67
2023/12/06 03:54:27;;;;;;;30.30;20.00;;;;;;;-1.09;91.58;101263.59;108062;1257;60298;-66
2023/12/06 03:56:55;;;;;;;31.70;21.20;;;;;;;-1.13;91.69;101263.10;108105;1254;59590;-65
2023/12/06 03:59:23;;;;;;;30.10;19.40;;;;;;;-1.14;92.13;101259.56;108165;1253;72796;-67
2023/12/06 04:01:50;;;;;;;31.80;19.70;;;;;;;-1.14;92.13;101259.88;108178;1254;72030;-66
2023/12/06 04:04:18;;;;;;;32.90;19.20;;;;;;;-1.15;92.32;101259.45;108291;1253;71444;-68
2023/12/06 04:06:46;;;;;;;32.30;19.80;;;;;;;-1.16;92.44;101258.86;108281;1254;60176;-68
2023/12/06 04:09:14;;;;;;;30.80;19.80;;;;;;;-1.17;92.54;101258.11;108317;1253;60267;-66
2023/12/06 04:11:41;;;;;;;32.80;19.40;;;;;;;-1.19;92.88;101261.96;108134;1254;72350;-66
2023/12/06 04:14:09;;;;;;;34.30;20.60;;;;;;;-1.19;93.33;101267.38;108303;1253;71797;-65
2023/12/06 04:16:37;;;;;;;29.80;19.30;;;;;;;-1.17;93.22;101271.23;108230;1254;72479;-66
2023/12/06 04:19:04;;;;;;;30.10;19.50;;;;;;;-1.17;93.48;101274.70;108169;1254;61743;-66
2023/12/06 04:21:32;;;;;;;33.70;20.30;;;;;;;-1.18;93.65;101274.06;108221;1253;59396;-66
2023/12/06 04:24:00;;;;;;;28.30;17.60;;;;;;;-1.17;93.53;101274.00;108071;1258;73197;-67
2023/12/06 04:26:28;;;;;;;32.40;20.80;;;;;;;-1.15;94.05;101273.83;108126;1256;71430;-65
2023/12/06 04:28:56;;;;;;;33.10;19.40;;;;;;;-1.12;94.02;101274.17;108215;1253;71440;-66
2023/12/06 04:31:24;;;;;;;30.90;19.20;;;;;;;-1.11;93.77;101272.70;108313;1252;60927;-66
2023/12/06 04:33:51;;;;;;;29.20;17.80;;;;;;;-1.12;93.88;101275.19;108317;1253;60303;-66
2023/12/06 04:36:20;;;;;;;33.00;19.20;;;;;;;-1.13;93.99;101273.02;108298;1254;72222;-66
2023/12/06 04:38:48;;;;;;;30.00;18.70;;;;;;;-1.12;93.94;101279.05;108283;1254;74923;-66
2023/12/06 04:41:16;;;;;;;29.10;17.70;;;;;;;-1.13;93.94;101281.31;108247;1254;72690;-66
2023/12/06 04:43:44;;;;;;;29.10;18.60;;;;;;;-1.15;93.94;101279.73;108233;1253;60271;-67
2023/12/06 04:46:12;;;;;;;35.20;19.40;;;;;;;-1.16;93.94;101287.01;108373;1253;60441;-66
2023/12/06 04:48:39;;;;;;;28.10;17.80;;;;;;;-1.17;93.77;101289.36;108344;1254;71394;-66
2023/12/06 04:51:07;;;;;;;27.20;18.00;;;;;;;-1.19;93.98;101290.61;108307;1253;71430;-65
2023/12/06 04:53:35;;;;;;;28.00;17.40;;;;;;;-1.20;93.96;101289.14;108247;1253;71360;-65
2023/12/06 04:56:03;;;;;;;30.70;18.90;;;;;;;-1.21;94.09;101284.16;108211;1257;60867;-66
2023/12/06 04:58:31;;;;;;;30.80;19.20;;;;;;;-1.22;94.02;101286.52;108314;1254;60253;-67
2023/12/06 05:00:58;;;;;;;33.00;18.70;;;;;;;-1.23;93.93;101290.34;108065;1253;73949;-66
2023/12/06 05:03:26;;;;;;;31.00;17.80;;;;;;;-1.25;94.09;101288.48;108111;1254;72569;-66
2023/12/06 05:05:54;;;;;;;26.30;16.40;;;;;;;-1.27;94.10;101292.83;108812;1254;71424;-68
2023/12/06 05:08:22;;;;;;;29.20;17.00;;;;;;;-1.25;94.17;101295.23;108264;1254;60841;-66
2023/12/06 05:10:49;;;;;;;30.10;18.50;;;;;;;-1.24;94.05;101294.54;108277;1253;60444;-66
2023/12/06 05:13:17;;;;;;;27.50;17.80;;;;;;;-1.26;93.95;101294.44;108263;1253;72619;-67
2023/12/06 05:15:45;;;;;;;28.90;17.60;;;;;;;-1.27;93.98;101292.98;108244;1254;70125;-66
2023/12/06 05:18:14;;;;;;;29.40;18.30;;;;;;;-1.29;93.89;101288.52;108215;1254;72667;-67
2023/12/06 05:20:42;;;;;;;28.30;17.90;;;;;;;-1.29;94.16;101286.95;108316;1253;60441;-65
2023/12/06 05:23:09;;;;;;;29.00;18.60;;;;;;;-1.30;93.95;101285.48;108173;1254;60482;-67
2023/12/06 05:25:37;;;;;;;27.90;17.40;;;;;;;-1.30;93.90;101285.65;108215;1253;73917;-66
2023/12/06 05:28:05;;;;;;;28.50;17.50;;;;;;;-1.29;94.03;101290.60;108159;1253;71722;-69
2023/12/06 05:30:33;;;;;;;26.80;18.60;;;;;;;-1.28;93.98;101291.39;108141;1254;71263;-66
2023/12/06 05:33:00;;;;;;;31.50;18.30;;;;;;;-1.27;93.95;101296.73;108106;1255;60482;-66
2023/12/06 05:35:28;;;;;;;29.20;18.90;;;;;;;-1.27;93.69;101296.34;108177;1254;59604;-67
2023/12/06 05:37:56;;;;;;;25.80;16.10;;;;;;;-1.25;93.57;101296.31;108277;1254;74004;-66
2023/12/06 05:40:24;;;;;;;26.20;17.30;;;;;;;-1.25;93.59;101293.20;108310;1253;71425;-66
2023/12/06 05:42:52;;;;;;;28.40;17.90;;;;;;;-1.27;93.29;101292.86;108098;1254;71365;-67
2023/12/06 05:45:19;;;;;;;27.90;17.10;;;;;;;-1.28;93.23;101295.39;108286;1254;61318;-68
2023/12/06 05:47:47;;;;;;;27.40;17.90;;;;;;;-1.28;93.03;101295.61;108243;1253;60253;-66
2023/12/06 05:50:15;;;;;;;25.20;16.60;;;;;;;-1.28;92.94;101293.09;108355;1253;72633;-67
2023/12/06 05:52:44;;;;;;;23.50;15.90;;;;;;;-1.24;92.88;101290.83;108180;1254;72745;-66
2023/12/06 05:55:12;;;;;;;27.60;17.80;;;;;;;-1.22;92.64;101289.16;108188;1254;71681;-66
2023/12/06 05:57:54;;;;;;;29.70;18.30;;;;;;;-1.22;92.33;101291.98;108314;1254;61036;-66
2023/12/06 06:00:43;;;;;;;28.40;18.60;;;;;;;-1.24;91.98;101294.11;107982;1254;60460;-65
2023/12/06 06:03:11;;;;;;;29.00;18.30;;;;;;;-1.25;91.85;101293.55;108302;1254;74329;-65
2023/12/06 06:05:39;;;;;;;29.50;18.30;;;;;;;-1.30;91.84;101302.58;108200;1253;72493;-65
2023/12/06 06:08:07;;;;;;;26.60;16.40;;;;;;;-1.29;92.20;101305.66;108249;1254;71451;-67
2023/12/06 06:10:35;;;;;;;26.20;16.80;;;;;;;-1.25;91.73;101305.02;108238;1253;60284;-66
2023/12/06 06:13:03;;;;;;;27.10;17.30;;;;;;;-1.28;91.86;101311.14;108250;1254;60219;-66
2023/12/06 06:15:31;;;;;;;26.10;17.20;;;;;;;-1.27;92.07;101313.46;108271;1253;72632;-66
2023/12/06 06:17:59;;;;;;;26.80;17.20;;;;;;;-1.19;91.61;101311.79;108270;1253;72154;-66
2023/12/06 06:20:26;;;;;;;29.20;17.80;;;;;;;-1.16;91.14;101314.87;108218;1256;71351;-66
2023/12/06 06:22:54;;;;;;;27.80;16.90;;;;;;;-1.17;90.60;101313.81;108293;1254;60305;-66
2023/12/06 06:25:22;;;;;;;29.80;18.20;;;;;;;-1.16;90.36;101316.96;108259;1253;60408;-66
2023/12/06 06:27:51;;;;;;;29.10;17.70;;;;;;;-1.18;90.04;101315.88;108303;1253;73910;-67
2023/12/06 06:30:19;;;;;;;27.10;16.90;;;;;;;-1.17;89.94;101318.95;108252;1256;72009;-65
2023/12/06 06:32:48;;;;;;;26.40;16.70;;;;;;;-1.19;90.01;101315.73;108212;1253;70977;-66
2023/12/06 06:35:16;;;;;;;28.00;16.80;;;;;;;-1.17;89.64;101314.58;108253;1254;60996;-67
2023/12/06 06:37:44;;;;;;;27.00;16.80;;;;;;;-1.16;89.48;101315.52;108269;1252;60358;-67
2023/12/06 06:40:12;;;;;;;24.50;15.80;;;;;;;-1.15;89.29;101318.73;108098;1254;73831;-67
2023/12/06 06:42:41;;;;;;;28.80;16.90;;;;;;;-1.15;89.08;101322.63;108271;1253;72695;-69
2023/12/06 06:45:09;;;;;;;26.30;17.10;;;;;;;-1.14;88.90;101321.94;108460;1253;72895;-68
2023/12/06 06:47:37;;;;;;;25.30;16.10;;;;;;;-1.12;88.99;101326.07;108146;1253;60295;-67
2023/12/06 06:50:06;;;;;;;25.10;15.90;;;;;;;-1.11;89.04;101325.30;108221;1254;60805;-66
2023/12/06 06:52:36;;;;;;;27.20;16.70;;;;;;;-1.08;88.89;101328.13;108281;1253;73180;-66
2023/12/06 06:55:07;;;;;;;26.60;17.50;;;;;;;-1.07;88.79;101332.86;108176;1254;71418;-67
2023/12/06 06:57:35;;;;;;;29.50;18.20;;;;;;;-1.05;88.45;101337.59;108258;1254;71360;-66
2023/12/06 07:00:04;;;;;;;29.70;17.90;;;;;;;-1.02;88.39;101335.83;108127;1254;60600;-66
2023/12/06 07:02:32;;;;;;;29.90;18.10;;;;;;;-1.01;88.24;101338.16;108271;1254;60366;-67
2023/12/06 07:05:00;;;;;;;29.60;18.70;;;;;;;-0.99;88.24;101341.27;108291;1253;72632;-67
2023/12/06 07:07:28;;;;;;;28.90;17.40;;;;;;;-0.96;88.03;101337.67;108363;1253;71523;-67
2023/12/06 07:09:56;;;;;;;29.20;19.20;;;;;;;-0.94;87.83;101339.70;108277;1253;71518;-67
2023/12/06 07:12:23;;;;;;;31.80;19.50;;;;;;;-0.92;87.40;101344.13;108392;1256;60437;-67
2023/12/06 07:14:52;;;;;;;25.90;16.70;;;;;;;-0.91;87.18;101346.23;108199;1253;60300;-66
2023/12/06 07:17:20;;;;;;;26.30;17.10;;;;;;;-0.89;86.82;101345.90;108204;1252;71909;-66
2023/12/06 07:19:48;;;;;;;30.70;17.90;;;;;;;-0.90;86.50;101348.19;108292;1253;71457;-66
2023/12/06 07:22:16;;;;;;;27.90;18.00;;;;;;;-0.89;86.31;101350.40;108454;1253;72483;-66
2023/12/06 07:24:44;;;;;;;31.80;18.50;;;;;;;-0.89;86.22;101347.95;108318;1252;59624;-66
2023/12/06 07:27:12;;;;;;;32.20;19.60;;;;;;;-0.88;85.80;101346.46;108190;1254;60316;-66
2023/12/06 07:29:42;;;;;;;29.20;17.90;;;;;;;-0.88;85.56;101342.96;108151;1258;74019;-66
2023/12/06 07:32:10;;;;;;;29.80;17.80;;;;;;;-0.87;85.29;101344.27;108193;1254;70267;-66
2023/12/06 07:34:38;;;;;;;29.10;18.50;;;;;;;-0.86;85.28;101344.10;108209;1254;71430;-66
2023/12/06 07:37:17;;;;;;;27.40;17.60;;;;;;;-0.84;85.09;101342.73;108275;1254;60328;-67
2023/12/06 07:39:45;;;;;;;27.80;17.30;;;;;;;-0.84;84.65;101347.23;108251;1253;60434;-66
2023/12/06 07:42:13;;;;;;;31.20;18.90;;;;;;;-0.84;84.54;101346.83;108253;1254;73930;-67
2023/12/06 07:44:41;;;;;;;31.90;19.90;;;;;;;-0.83;84.24;101346.95;108211;1254;71987;-67
2023/12/06 07:47:09;;;;;;;31.20;19.70;;;;;;;-0.82;84.40;101348.41;108265;1254;73090;-66
2023/12/06 07:49:37;;;;;;;28.50;18.20;;;;;;;-0.80;84.35;101345.98;108212;1253;59664;-66
2023/12/06 07:52:05;;;;;;;27.60;18.30;;;;;;;-0.76;83.86;101348.84;108140;1254;60188;-66
2023/12/06 07:54:33;;;;;;;30.70;19.20;;;;;;;-0.72;84.01;101351.69;108385;1253;73853;-66
2023/12/06 07:57:00;;;;;;;30.70;19.00;;;;;;;-0.69;83.64;101355.96;108130;1257;72479;-66
2023/12/06 07:59:28;;;;;;;32.00;18.70;;;;;;;-0.70;83.38;101356.41;108114;1254;71215;-66
2023/12/06 08:01:56;;;;;;;31.10;18.70;;;;;;;-0.66;83.47;101355.63;108127;1253;60277;-65
2023/12/06 08:04:24;;;;;;;29.00;18.30;;;;;;;-0.61;83.41;101357.18;108208;1253;60449;-67
2023/12/06 08:06:52;;;;;;;30.80;19.60;;;;;;;-0.58;83.07;101356.52;108224;1253;73852;-66
2023/12/06 08:09:20;;;;;;;31.70;20.60;;;;;;;-0.56;83.04;101363.63;108122;1253;71811;-66
2023/12/06 08:11:48;;;;;;;30.30;19.60;;;;;;;-0.52;82.70;101361.15;108139;1254;70352;-67
2023/12/06 08:14:16;;;;;;;28.80;18.70;;;;;;;-0.49;82.71;101363.41;108320;1253;60438;-67
2023/12/06 08:16:43;;;;;;;30.70;18.90;;;;;;;-0.45;82.37;101363.92;108156;1254;60366;-66
2023/12/06 08:19:11;;;;;;;26.80;18.10;;;;;;;-0.41;82.08;101365.96;108164;1254;75798;-67
2023/12/06 08:21:39;;;;;;;29.60;19.10;;;;;;;-0.37;82.05;101364.09;108186;1253;73004;-65
2023/12/06 08:24:07;;;;;;;30.60;19.60;;;;;;;-0.33;81.75;101364.00;108249;1254;71269;-68
2023/12/06 08:26:35;;;;;;;30.10;18.70;;;;;;;-0.30;81.52;101360.90;108136;1254;60714;-66
2023/12/06 08:29:02;;;;;;;32.00;18.80;;;;;;;-0.25;81.19;101362.24;108218;1253;60309;-67
2023/12/06 08:31:31;;;;;;;30.30;19.50;;;;;;;-0.19;81.35;101361.57;108156;1254;72584;-66
2023/12/06 08:33:59;;;;;;;29.50;18.50;;;;;;;-0.09;81.15;101360.21;108230;1254;71608;-66
2023/12/06 08:36:27;;;;;;;31.50;20.00;;;;;;;-0.04;80.67;101358.08;108214;1254;71240;-67
2023/12/06 08:38:54;;;;;;;32.70;20.70;;;;;;;-0.01;80.12;101360.70;108138;1254;60197;-67
2023/12/06 08:41:23;;;;;;;28.10;18.10;;;;;;;0.05;80.18;101357.14;108340;1253;60443;-67
2023/12/06 08:43:52;;;;;;;29.20;19.00;;;;;;;0.14;79.77;101355.23;108172;1253;73825;-67
2023/12/06 08:46:20;;;;;;;31.20;19.80;;;;;;;0.20;79.13;101354.46;108181;1254;72867;-69
2023/12/06 08:48:48;;;;;;;30.40;19.20;;;;;;;0.24;78.69;101353.60;108195;1254;71439;-67
2023/12/06 08:51:16;;;;;;;31.20;20.00;;;;;;;0.28;78.35;101352.80;108298;1252;60354;-67
2023/12/06 08:53:43;;;;;;;27.00;18.70;;;;;;;0.36;78.31;101351.36;108086;1253;60280;-68
2023/12/06 08:56:11;;;;;;;31.70;19.30;;;;;;;0.43;78.02;101349.31;108172;1253;72668;-67
2023/12/06 08:58:40;;;;;;;30.90;19.80;;;;;;;0.48;77.58;101350.35;108134;1254;71776;-66
2023/12/06 09:01:09;;;;;;;29.40;19.10;;;;;;;0.51;76.86;101350.23;108249;1253;71412;-67
2023/12/06 09:03:37;;;;;;;27.50;19.00;;;;;;;0.49;76.17;101348.54;108187;1253;60331;-68
2023/12/06 09:06:04;;;;;;;30.00;19.90;;;;;;;0.42;75.20;101348.98;108225;1253;60446;-66
2023/12/06 09:08:32;;;;;;;28.40;18.40;;;;;;;0.39;75.17;101346.13;108294;1254;73066;-69
2023/12/06 09:11:00;;;;;;;30.60;18.50;;;;;;;0.38;74.90;101346.27;108330;1254;71408;-68
2023/12/06 09:13:28;;;;;;;31.40;20.00;;;;;;;0.40;74.93;101343.04;108248;1254;72883;-68
2023/12/06 09:15:55;;;;;;;33.70;21.10;;;;;;;0.44;75.05;101337.69;108112;1253;60208;-68
2023/12/06 09:18:24;;;;;;;31.40;20.70;;;;;;;0.48;74.75;101337.45;108126;1253;60210;-67
2023/12/06 09:20:52;;;;;;;30.40;19.90;;;;;;;0.49;74.20;101334.18;108202;1253;73884;-67
2023/12/06 09:23:19;;;;;;;31.50;20.60;;;;;;;0.51;74.08;101333.36;108179;1252;72721;-68
2023/12/06 09:25:47;;;;;;;28.90;18.60;;;;;;;0.57;73.92;101333.23;108190;1254;71708;-67
2023/12/06 09:28:16;;;;;;;32.40;21.20;;;;;;;0.62;73.85;101332.14;108165;1253;61755;-67
2023/12/06 09:30:44;;;;;;;32.50;20.30;;;;;;;0.65;73.45;101331.24;108331;1252;62205;-67
2023/12/06 09:33:12;;;;;;;30.20;19.80;;;;;;;0.71;73.09;101333.15;108239;1253;75420;-67
2023/12/06 09:35:40;;;;;;;28.70;19.20;;;;;;;0.75;73.04;101325.97;108259;1253;72880;-68
2023/12/06 09:38:08;;;;;;;29.30;19.10;;;;;;;0.79;72.20;101325.55;108176;1254;72770;-68
2023/12/06 09:40:35;;;;;;;30.60;20.60;;;;;;;0.81;72.27;101320.09;108283;1253;60433;-67
2023/12/06 09:43:03;;;;;;;30.50;20.20;;;;;;;0.87;72.24;101320.45;108168;1253;59986;-67
2023/12/06 09:45:31;;;;;;;31.00;20.90;;;;;;;0.94;72.15;101316.28;108208;1254;76101;-68
2023/12/06 09:47:58;;;;;;;31.70;20.70;;;;;;;0.98;71.38;101314.64;108236;1253;70698;-67
2023/12/06 09:50:26;;;;;;;31.30;19.40;;;;;;;0.99;71.27;101315.52;108282;1254;71263;-68
2023/12/06 09:52:55;;;;;;;28.10;18.40;;;;;;;1.02;70.97;101313.61;108182;1254;59740;-68
2023/12/06 09:55:28;;;;;;;33.00;21.80;;;;;;;1.03;70.60;101314.79;108292;1254;60360;-67
2023/12/06 09:57:56;;;;;;;31.00;20.40;;;;;;;1.05;70.38;101314.00;108252;1254;73805;-68
2023/12/06 10:00:24;;;;;;;28.00;18.70;;;;;;;1.07;70.40;101315.83;108463;1257;71551;-68
2023/12/06 10:02:54;;;;;;;31.00;19.80;;;;;;;1.11;70.02;101314.88;108098;1254;72204;-70
2023/12/06 10:05:22;;;;;;;31.60;20.30;;;;;;;1.13;69.78;101318.45;108196;1252;60427;-68
2023/12/06 10:07:49;;;;;;;28.90;19.80;;;;;;;1.19;69.80;101318.58;108241;1253;62165;-69
2023/12/06 10:10:19;;;;;;;26.90;17.50;;;;;;;1.22;69.54;101315.19;108305;1253;74014;-68
2023/12/06 10:12:50;;;;;;;27.50;19.00;;;;;;;1.25;69.11;101313.34;108236;1254;72720;-68
2023/12/06 10:15:18;;;;;;;22.20;14.80;;;;;;;1.25;68.72;101314.91;108189;1254;74852;-69
2023/12/06 10:17:46;;;;;;;27.80;18.30;;;;;;;1.26;68.67;101321.74;108227;1254;63103;-69
2023/12/06 10:20:15;;;;;;;28.00;18.20;;;;;;;1.26;68.33;101322.69;108226;1252;60435;-68
2023/12/06 10:22:44;;;;;;;27.80;17.70;;;;;;;1.24;68.07;101319.55;108279;1254;76039;-68
2023/12/06 10:25:12;;;;;;;27.20;17.80;;;;;;;1.21;67.88;101322.30;108085;1253;75852;-68
2023/12/06 10:27:39;;;;;;;28.40;18.40;;;;;;;1.20;67.96;101316.98;108143;1253;73077;-67
2023/12/06 10:30:08;;;;;;;29.50;19.70;;;;;;;1.19;67.85;101317.16;108209;1254;60367;-68
2023/12/06 10:32:36;;;;;;;30.90;19.60;;;;;;;1.14;67.71;101314.98;108315;1253;60498;-68
2023/12/06 10:35:05;;;;;;;30.90;19.50;;;;;;;1.09;67.66;101314.70;108286;1254;76102;-69
2023/12/06 10:37:33;;;;;;;29.60;19.00;;;;;;;1.04;67.81;101309.37;108111;1254;74820;-67
2023/12/06 10:40:09;;;;;;;30.00;19.90;;;;;;;1.01;67.74;101305.77;108284;1254;71355;-67
2023/12/06 10:42:38;;;;;;;29.60;19.30;;;;;;;1.01;67.89;101307.75;108257;1254;60381;-68
2023/12/06 10:45:07;;;;;;;27.70;18.20;;;;;;;1.01;67.86;101308.30;108229;1254;60437;-68
2023/12/06 10:47:35;;;;;;;30.60;19.40;;;;;;;1.00;67.85;101300.70;108195;1252;73843;-68
2023/12/06 10:50:04;;;;;;;30.10;18.90;;;;;;;0.98;67.72;101300.23;108250;1254;72298;-68
2023/12/06 10:52:31;;;;;;;29.90;20.30;;;;;;;0.88;68.03;101303.64;108285;1253;72687;-68
2023/12/06 10:54:59;;;;;;;29.60;19.70;;;;;;;0.87;68.20;101299.52;107980;1253;59404;-69
2023/12/06 10:57:27;;;;;;;36.50;22.10;;;;;;;0.94;68.14;101296.13;108326;1254;62240;-67
2023/12/06 10:59:57;;;;;;;28.20;18.30;;;;;;;0.97;67.89;101295.77;108202;1253;72572;-68
2023/12/06 11:02:27;;;;;;;30.70;20.10;;;;;;;0.99;67.99;101296.29;108278;1253;75018;-69
2023/12/06 11:04:57;;;;;;;30.10;19.70;;;;;;;1.03;67.85;101291.63;108192;1254;71806;-69
2023/12/06 11:07:50;;;;;;;30.50;20.30;;;;;;;0.99;67.80;101289.45;108216;1254;60228;-69
2023/12/06 11:10:45;;;;;;;31.30;20.00;;;;;;;0.98;67.52;101285.35;108222;1253;60422;-69